Terminal Aerodrome Forecast
Issued by NWS

Home | Current Version | Previous Version | Text Only | Print | Product List | Glossary On
Versions: 1 2 3 4 5 6 7 8 9 10 11 12 13 14 15 16 17 18 19
000
FTAK31 PAJN 241134
TAFAGY
TAF
PAGY 241134Z 2412/2512 04015G25KT 6SM -SN BKN035 OVC060
      TEMPO 2412/2416 04020G35KT 2SM -SN BLSN BKN025 OVC035
     FM242100 04015G30KT 6SM BLSN VCSH OVC040
      AMD LTD TO CLD VIS AND WIND=

USA.gov is the U.S. government's official web portal to all federal, state and local government web resources and services.